Time;durP1;ratioP1;P1;durP2;ratioP2;P2;SDS_P1;SDS_P2;PMS_P1;PMS_P2;Temp;Humidity;BMP_temperature;BMP_pressure;BME280_temperature;BME280_humidity;BME280_pressure;Samples;Min_cycle;Max_cycle;Signal;HPM_P1;HPM_P2
2021/06/29 04:54:23;;;;;;;;;;;;;;;6.39;92.58;99299.91;6280516;22;19946;-90
2021/06/29 04:56:48;;;;;;;;;;;;;;;6.38;91.59;99307.84;6280342;22;19915;-90
2021/06/29 04:59:16;;;;;;;;;;;;;;;6.32;92.98;99293.16;6254785;22;19946;-90
2021/06/29 05:01:41;;;;;;;;;;;;;;;6.26;93.64;99291.56;6282523;22;19915;-88
2021/06/29 05:04:15;;;;;;;;;;;;;;;6.32;94.55;99295.78;6283806;22;19930;-90
2021/06/29 05:07:04;;;;;;;;;;;;;;;6.35;94.82;99303.53;6241604;23;19919;-91
2021/06/29 05:09:38;;;;;;;;;;;;;;;6.43;94.33;99298.03;6253731;22;19915;-91
2021/06/29 05:17:31;;;;;;;;;;;;;;;6.30;95.32;99297.59;6252338;23;20021;-91
2021/06/29 05:20:19;;;;;;;;;;;;;;;6.32;95.47;99298.41;6251940;22;19957;-92
2021/06/29 05:25:54;;;;;;;;;;;;;;;6.29;94.54;99302.00;6238903;22;19961;-89
2021/06/29 05:35:35;;;;;;;;;;;;;;;6.34;95.68;99297.44;6282800;22;19934;-88
2021/06/29 05:38:10;;;;;;;;;;;;;;;6.38;95.07;99292.06;6280092;22;19982;-89
2021/06/29 05:40:35;;;;;;;;;;;;;;;6.50;100.00;99291.66;6253798;22;19915;-88
2021/06/29 05:43:03;;;;;;;;;;;;;;;6.62;100.00;99291.25;6280417;22;19919;-88
2021/06/29 05:45:28;;;;;;;;;;;;;;;6.83;98.28;99283.47;6280609;22;19926;-88
2021/06/29 05:47:54;;;;;;;;;;;;;;;6.67;100.00;99278.78;6280444;22;19982;-88
2021/06/29 05:50:22;;;;;;;;;;;;;;;6.87;100.00;99279.84;6280338;22;19917;-88
2021/06/29 05:52:48;;;;;;;;;;;;;;;7.28;100.00;99266.94;6279999;22;19922;-87
2021/06/29 05:55:14;;;;;;;;;;;;;;;7.61;100.00;99275.34;6280341;22;19919;-88
2021/06/29 05:57:40;;;;;;;;;;;;;;;7.82;100.00;99275.41;6280652;22;19986;-87
2021/06/29 06:00:13;;;;;;;;;;;;;;;7.84;100.00;99283.25;6280745;22;19919;-88
2021/06/29 06:02:38;;;;;;;;;;;;;;;7.71;100.00;99285.53;6254068;22;19979;-88
2021/06/29 06:05:05;;;;;;;;;;;;;;;7.48;100.00;99284.59;6280304;22;20299;-88
2021/06/29 06:07:31;;;;;;;;;;;;;;;7.49;100.00;99283.69;6279992;22;19919;-89
2021/06/29 06:09:59;;;;;;;;;;;;;;;7.34;100.00;99274.63;6279873;22;19915;-90
2021/06/29 06:12:27;;;;;;;;;;;;;;;7.20;100.00;99274.28;6279926;22;19937;-89
2021/06/29 06:14:56;;;;;;;;;;;;;;;7.25;100.00;99265.25;6279889;22;19919;-91
2021/06/29 06:17:22;;;;;;;;;;;;;;;7.11;100.00;99262.28;6280416;22;19943;-90
2021/06/29 06:19:50;;;;;;;;;;;;;;;7.04;100.00;99272.19;6280527;22;20265;-89
2021/06/29 06:22:16;;;;;;;;;;;;;;;6.99;100.00;99266.25;6280252;22;19934;-90
2021/06/29 06:24:41;;;;;;;;;;;;;;;6.92;100.00;99259.47;6279332;22;19915;-89
2021/06/29 06:27:13;;;;;;;;;;;;;;;6.88;100.00;99260.50;6280790;22;19938;-89
2021/06/29 06:29:38;;;;;;;;;;;;;;;6.95;100.00;99259.34;6281920;22;19938;-90
2021/06/29 06:32:04;;;;;;;;;;;;;;;6.95;99.82;99255.88;6253181;22;19915;-89
2021/06/29 06:34:48;;;;;;;;;;;;;;;;;;;;;
2021/06/29 06:37:17;;;;;;;;;;;;;;;6.86;99.40;99249.13;6279791;22;19962;-90
2021/06/29 06:39:42;;;;;;;;;;;;;;;6.80;99.66;99252.03;6279831;22;19931;-89
2021/06/29 06:42:07;;;;;;;;;;;;;;;6.83;99.47;99254.53;6252949;22;19926;-89
2021/06/29 06:44:33;;;;;;;;;;;;;;;6.65;99.21;99254.28;6255962;22;19915;-89
2021/06/29 06:46:58;;;;;;;;;;;;;;;6.72;98.45;99244.41;6281808;22;19915;-88
2021/06/29 06:49:23;;;;;;;;;;;;;;;6.62;99.06;99238.59;6283033;22;19923;-90
2021/06/29 07:49:14;;;;;;;;;;;;;;;6.19;96.55;99205.88;6279263;22;19988;-90
2021/06/29 07:51:40;;;;;;;;;;;;;;;6.30;96.70;99205.50;6254649;22;20196;-90
2021/06/29 07:54:05;;;;;;;;;;;;;;;6.26;98.08;99204.75;6281127;22;19919;-89
2021/06/29 07:56:37;;;;;;;;;;;;;;;6.31;97.54;99199.31;6281234;22;19919;-90
2021/06/29 07:59:12;;;;;;;;;;;;;;;6.30;97.30;99210.75;6255063;22;19919;-90
2021/06/29 08:01:50;;;;;;;;;;;;;;;6.33;97.83;99201.00;6282762;22;19927;-91
2021/06/29 08:04:28;;;;;;;;;;;;;;;6.25;97.47;99203.00;6257068;22;19921;-90
2021/06/29 08:07:03;;;;;;;;;;;;;;;6.18;97.91;99202.38;6256483;22;20295;-89
2021/06/29 08:17:35;;;;;;;;;;;;;;;14.34;95.63;99158.34;6287862;22;20242;-89
2021/06/29 08:20:00;;;;;;;;;;;;;;;13.64;98.69;99171.88;6281478;22;19939;-89
2021/06/29 13:21:31;;;;;;;;;;;;;;;9.40;88.00;99232.56;6278855;22;20025;-89
2021/06/29 13:24:10;;;;;;;;;;;;;;;9.35;89.68;99232.78;6279900;22;19915;-89
2021/06/29 13:27:11;;;;;;;;;;;;;;;9.42;88.83;99225.41;6280386;22;20298;-89
2021/06/29 13:29:38;;;;;;;;;;;;;;;9.44;87.86;99215.63;6279897;22;19919;-89
2021/06/29 13:32:34;;;;;;;;;;;;;;;9.43;88.49;99200.69;6253857;22;19923;-90
2021/06/29 13:38:00;;;;;;;;;;;;;;;9.35;87.86;99158.75;6280689;22;19923;-89
2021/06/29 13:43:41;;;;;;;;;;;;;;;;;;;;;
2021/06/29 14:18:18;;;;;;;;;;;;;;;;;;;;;
2021/06/29 14:23:42;;;;;;;;;;;;;;;;;;;;;
2021/06/29 14:58:10;;;;;;;;;;;;;;;;;;;;;
2021/06/29 15:00:56;;;;;;;;;;;;;;;;;;;;;
2021/06/29 15:03:25;;;;;;;;;;;;;;;9.11;88.69;99245.34;6279940;22;19946;-89
2021/06/29 15:05:51;;;;;;;;;;;;;;;9.11;86.82;99232.13;6283859;22;20002;-89
2021/06/29 15:11:27;;;;;;;;;;;;;;;9.03;87.87;99243.03;6281695;22;19923;-92
2021/06/29 15:13:53;;;;;;;;;;;;;;;8.98;88.59;99242.38;6254792;22;19918;-89
2021/06/29 15:16:21;;;;;;;;;;;;;;;9.05;89.03;99248.25;6255550;22;20336;-91
2021/06/29 15:21:12;;;;;;;;;;;;;;;9.01;87.82;99236.94;6282583;22;19925;-89
2021/06/29 15:23:40;;;;;;;;;;;;;;;9.04;88.23;99233.31;6281418;22;19982;-88
2021/06/29 15:26:06;;;;;;;;;;;;;;;8.96;88.04;99235.47;6282027;22;19935;-89
2021/06/29 15:28:55;;;;;;;;;;;;;;;9.00;88.50;99229.97;6281856;22;20295;-90
2021/06/29 15:31:19;;;;;;;;;;;;;;;8.87;87.89;99231.44;6281178;22;20286;-89
2021/06/29 15:33:48;;;;;;;;;;;;;;;8.87;88.50;99232.31;6282458;22;19939;-90
2021/06/29 15:36:14;;;;;;;;;;;;;;;8.87;88.11;99234.94;6281436;22;19981;-89
2021/06/29 15:38:40;;;;;;;;;;;;;;;8.88;88.59;99239.28;6280824;22;19930;-89
2021/06/29 15:41:06;;;;;;;;;;;;;;;8.93;88.61;99240.88;6280532;22;19915;-89
2021/06/29 15:46:22;;;;;;;;;;;;;;;8.88;88.69;99244.56;6258811;22;20300;-89
2021/06/29 15:51:16;;;;;;;;;;;;;;;8.86;89.15;99249.06;6281988;22;19927;-93
2021/06/29 15:53:59;;;;;;;;;;;;;;;8.94;88.91;99242.59;6281944;22;19992;-89
2021/06/29 15:56:43;;;;;;;;;;;;;;;8.83;89.44;99241.28;6252436;22;20336;-89
2021/06/29 16:01:44;;;;;;;;;;;;;;;8.91;88.35;99230.38;6283220;22;19941;-89
2021/06/29 16:07:32;;;;;;;;;;;;;;;8.84;88.93;99224.50;6187741;23;19912;-90
2021/06/29 16:11:22;;;;;;;;;;;;;;;;;;;;;
2021/06/29 16:13:32;;;;;;;;;;;;;;;8.93;88.29;99225.03;6246554;22;19935;-90
2021/06/29 16:16:36;;;;;;;;;;;;;;;8.88;88.79;99219.94;6282108;22;19919;-89
2021/06/29 16:19:30;;;;;;;;;;;;;;;8.95;88.67;99215.22;6275964;22;19969;-89
2021/06/29 16:29:56;;;;;;;;;;;;;;;8.86;87.57;99227.94;6283746;22;19966;-89
2021/06/29 16:48:38;;;;;;;;;;;;;;;8.74;88.14;99236.41;6273151;22;19954;-88
2021/06/29 16:51:04;;;;;;;;;;;;;;;8.79;87.29;99231.78;6244736;23;19923;-89
2021/06/29 16:53:37;;;;;;;;;;;;;;;8.77;87.37;99238.91;6249663;23;19981;-89
2021/06/29 16:56:41;;;;;;;;;;;;;;;8.80;88.50;99222.06;6223369;23;19967;-91
2021/06/29 16:59:09;;;;;;;;;;;;;;;8.80;87.15;99228.22;6232952;22;19919;-88
2021/06/29 17:01:36;;;;;;;;;;;;;;;8.81;87.71;99224.66;6254243;22;20038;-89
2021/06/29 17:04:04;;;;;;;;;;;;;;;8.79;88.27;99225.63;6281329;22;20295;-90
2021/06/29 17:06:30;;;;;;;;;;;;;;;8.80;88.09;99228.22;6280044;22;20029;-89
2021/06/29 17:08:55;;;;;;;;;;;;;;;8.70;87.31;99211.06;6280563;22;20307;-88
2021/06/29 17:11:24;;;;;;;;;;;;;;;8.68;86.94;99212.91;6280460;22;20242;-88
2021/06/29 17:14:27;;;;;;;;;;;;;;;;;;;;;
2021/06/29 17:19:38;;;;;;;;;;;;;;;8.83;88.85;99212.22;6258857;22;19987;-89
2021/06/29 17:22:03;;;;;;;;;;;;;;;8.78;88.85;99211.56;6254267;22;19915;-88
2021/06/29 17:24:29;;;;;;;;;;;;;;;8.81;87.01;99211.44;6279725;22;19922;-88
2021/06/29 17:26:59;;;;;;;;;;;;;;;8.69;86.07;99207.53;6280067;22;20239;-88
2021/06/29 17:29:24;;;;;;;;;;;;;;;8.75;87.72;99209.06;6280192;22;19919;-88
2021/06/29 17:31:59;;;;;;;;;;;;;;;8.69;86.37;99210.19;6281010;22;19944;-88
2021/06/29 17:37:09;;;;;;;;;;;;;;;8.78;88.60;99202.81;6250795;23;19923;-88
2021/06/29 17:40:11;;;;;;;;;;;;;;;;;;;;;
2021/06/29 17:42:41;;;;;;;;;;;;;;;8.72;88.71;99217.13;6282275;22;19962;-88
2021/06/29 17:45:08;;;;;;;;;;;;;;;8.77;87.54;99217.78;6280316;22;19942;-89
2021/06/29 17:47:34;;;;;;;;;;;;;;;8.76;87.42;99210.78;6280025;22;19946;-88
2021/06/29 17:50:02;;;;;;;;;;;;;;;8.61;87.41;99209.66;6280196;22;19915;-89
2021/06/29 17:52:27;;;;;;;;;;;;;;;8.66;87.61;99214.75;6279485;22;19986;-88
2021/06/29 17:54:55;;;;;;;;;;;;;;;8.62;88.75;99216.69;6280383;22;20263;-89
2021/06/29 17:57:27;;;;;;;;;;;;;;;8.65;87.06;99213.91;6253939;22;19919;-89
2021/06/29 17:59:52;;;;;;;;;;;;;;;8.60;87.88;99221.19;6279846;22;19911;-88
2021/06/29 18:02:20;;;;;;;;;;;;;;;8.65;87.09;99215.69;6279869;22;19922;-88
2021/06/29 18:04:46;;;;;;;;;;;;;;;8.58;87.51;99222.16;6279761;22;20207;-88
2021/06/29 18:07:14;;;;;;;;;;;;;;;8.67;86.63;99217.31;6252872;22;19994;-88
2021/06/29 18:09:57;;;;;;;;;;;;;;;8.50;87.35;99215.44;6280159;22;19926;-88
2021/06/29 18:12:23;;;;;;;;;;;;;;;8.54;87.57;99217.00;6279881;22;19922;-89
2021/06/29 18:14:51;;;;;;;;;;;;;;;8.61;87.17;99219.38;6279675;22;19965;-88
2021/06/29 18:17:35;;;;;;;;;;;;;;;;;;;;;
2021/06/29 18:20:06;;;;;;;;;;;;;;;8.58;87.08;99214.25;6279465;22;19990;-89
2021/06/29 18:22:49;;;;;;;;;;;;;;;8.48;86.55;99203.22;6252834;22;19942;-89
2021/06/29 18:25:18;;;;;;;;;;;;;;;8.55;87.16;99204.66;6253135;22;19982;-89
2021/06/29 18:27:48;;;;;;;;;;;;;;;8.54;87.72;99206.44;6279552;22;19923;-89
2021/06/29 18:30:23;;;;;;;;;;;;;;;8.36;87.50;99197.53;6279314;22;19923;-89
2021/06/29 18:32:58;;;;;;;;;;;;;;;8.43;87.17;99200.78;6279951;22;19915;-89
2021/06/29 18:35:27;;;;;;;;;;;;;;;8.46;86.80;99198.00;6279714;22;19919;-89
2021/06/29 18:37:52;;;;;;;;;;;;;;;8.50;86.96;99199.59;6255030;22;19926;-90
2021/06/29 18:40:38;;;;;;;;;;;;;;;8.50;87.66;99209.28;6283534;22;19911;-90
2021/06/29 18:43:04;;;;;;;;;;;;;;;8.50;88.08;99199.59;6256531;22;19934;-89
2021/06/29 18:45:29;;;;;;;;;;;;;;;8.51;87.07;99189.88;6282928;22;19982;-90
2021/06/29 18:48:04;;;;;;;;;;;;;;;;;;;;;
2021/06/29 18:50:36;;;;;;;;;;;;;;;8.45;87.45;99190.16;6282912;22;20347;-90
2021/06/29 18:53:06;;;;;;;;;;;;;;;8.48;87.76;99196.16;6283789;22;19926;-90
2021/06/29 18:55:35;;;;;;;;;;;;;;;8.42;87.57;99196.38;6256456;22;19962;-89
2021/06/29 18:58:04;;;;;;;;;;;;;;;8.29;87.65;99205.75;6283178;22;20294;-90
2021/06/29 19:00:37;;;;;;;;;;;;;;;8.37;87.12;99203.66;6283251;22;20297;-90
2021/06/29 19:03:02;;;;;;;;;;;;;;;8.30;87.68;99199.56;6283571;22;20312;-89
2021/06/29 19:05:28;;;;;;;;;;;;;;;8.33;87.41;99197.66;6283741;22;19916;-89
2021/06/29 19:07:55;;;;;;;;;;;;;;;8.43;87.44;99187.56;6282973;22;19915;-89
2021/06/29 19:10:21;;;;;;;;;;;;;;;8.34;87.12;99183.53;6283351;22;19915;-89
2021/06/29 19:12:47;;;;;;;;;;;;;;;8.34;86.84;99174.75;6283181;22;19915;-89
2021/06/29 19:18:11;;;;;;;;;;;;;;;8.40;86.88;99174.47;6246428;22;19942;-89
2021/06/29 19:21:00;;;;;;;;;;;;;;;8.34;87.70;99172.97;6255542;22;19934;-89
2021/06/29 19:23:28;;;;;;;;;;;;;;;8.29;88.04;99179.38;6282892;22;19915;-89
2021/06/29 19:25:53;;;;;;;;;;;;;;;8.29;87.26;99171.44;6283353;22;19919;-89
2021/06/29 19:28:19;;;;;;;;;;;;;;;8.30;87.95;99175.81;6282833;22;20011;-90
2021/06/29 19:30:47;;;;;;;;;;;;;;;8.42;87.50;99183.19;6282987;22;20233;-88
2021/06/29 19:36:00;;;;;;;;;;;;;;;8.43;86.04;99187.56;6220799;22;19920;-90
2021/06/29 19:39:12;;;;;;;;;;;;;;;8.28;87.43;99190.84;6257368;22;19942;-91
2021/06/29 19:41:51;;;;;;;;;;;;;;;;;;;;;
2021/06/29 19:52:57;;;;;;;;;;;;;;;8.12;88.74;99209.97;6286345;22;20255;-90
2021/06/29 19:55:24;;;;;;;;;;;;;;;8.19;87.90;99203.50;6216927;22;19920;-90
2021/06/29 20:06:33;;;;;;;;;;;;;;;8.08;87.25;99226.84;6260325;22;19982;-90
2021/06/29 20:09:36;;;;;;;;;;;;;;;8.14;86.81;99229.25;6257125;22;19915;-91
2021/06/29 20:41:50;;;;;;;;;;;;;;;8.06;86.92;99230.47;6270055;22;19923;-89
2021/06/29 20:44:39;;;;;;;;;;;;;;;;;;;;;
2021/06/29 20:47:51;;;;;;;;;;;;;;;8.18;86.23;99232.59;6279363;22;20411;-90
2021/06/29 21:12:55;;;;;;;;;;;;;;;;;;;;;
